createdAt,value
2022-08-23T00:00:13.733Z,58.47
2022-08-23T00:01:12.865Z,58.69
2022-08-23T00:02:23.411Z,58.39
2022-08-23T00:03:14.253Z,58.56
2022-08-23T00:04:13.308Z,58.29
2022-08-23T00:05:14.468Z,58.59
2022-08-23T00:06:13.609Z,58.39
2022-08-23T00:07:13.778Z,58.39
2022-08-23T00:08:13.968Z,58.80
2022-08-23T00:09:14.114Z,58.59
2022-08-23T00:10:14.267Z,58.56
2022-08-23T00:11:14.422Z,58.49
2022-08-23T00:12:15.472Z,58.29
2022-08-23T00:13:14.749Z,58.39
2022-08-23T00:14:14.902Z,58.39
2022-08-23T00:15:15.068Z,58.29
2022-08-23T00:16:15.975Z,58.49
2022-08-23T00:17:25.579Z,58.59
2022-08-23T00:18:17.001Z,58.29
2022-08-23T00:19:15.755Z,58.39
2022-08-23T00:20:16.486Z,58.09
2022-08-23T00:21:16.180Z,58.69
2022-08-23T00:22:16.348Z,58.49
2022-08-23T00:23:16.480Z,58.00
2022-08-23T00:24:16.637Z,58.00
2022-08-23T00:25:17.488Z,58.00
2022-08-23T00:26:17.027Z,58.12
2022-08-23T00:27:17.223Z,57.79
2022-08-23T00:28:17.390Z,57.89
2022-08-23T00:29:17.545Z,57.19
2022-08-23T00:30:17.713Z,57.89
2022-08-23T00:31:18.994Z,57.89
2022-08-23T00:32:18.101Z,58.09
2022-08-23T00:33:18.489Z,57.92
2022-08-23T00:34:18.384Z,57.39
2022-08-23T00:35:26.588Z,57.79
2022-08-23T00:36:19.729Z,56.99
2022-08-23T00:37:18.864Z,57.79
2022-08-23T00:38:34.462Z,56.79
2022-08-23T00:39:20.979Z,56.92
2022-08-23T00:40:19.571Z,56.92
2022-08-23T00:41:19.556Z,57.89
2022-08-23T00:42:20.480Z,57.29
2022-08-23T00:43:19.876Z,57.59
2022-08-23T00:44:20.041Z,57.89
2022-08-23T00:45:20.225Z,56.79
2022-08-23T00:46:20.982Z,57.82
2022-08-23T00:47:20.650Z,57.29
2022-08-23T00:48:20.833Z,57.09
2022-08-23T00:49:21.014Z,57.79
2022-08-23T00:50:24.107Z,58.02
2022-08-23T00:51:21.416Z,57.72
2022-08-23T00:52:21.594Z,58.22
2022-08-23T00:53:21.752Z,57.52
2022-08-23T00:54:21.931Z,56.92
2022-08-23T00:55:22.102Z,57.22
2022-08-23T00:56:22.234Z,58.02
2022-08-23T00:57:22.404Z,57.89
2022-08-23T00:58:23.553Z,57.19
2022-08-23T00:59:23.002Z,57.59
2022-08-23T01:00:23.015Z,57.82
2022-08-23T01:01:23.230Z,57.29
2022-08-23T01:02:23.300Z,57.82
2022-08-23T01:03:23.995Z,57.69
2022-08-23T01:04:23.611Z,57.72
2022-08-23T01:05:24.486Z,58.12
2022-08-23T01:06:24.007Z,56.92
2022-08-23T01:07:24.986Z,57.92
2022-08-23T01:08:24.347Z,56.92
2022-08-23T01:09:24.548Z,58.42
2022-08-23T01:10:24.679Z,57.92
2022-08-23T01:11:25.490Z,57.92
2022-08-23T01:12:32.226Z,57.62
2022-08-23T01:13:26.212Z,57.82
2022-08-23T01:14:25.505Z,58.05
2022-08-23T01:15:25.619Z,58.02
2022-08-23T01:16:25.749Z,58.22
2022-08-23T01:17:25.903Z,57.02
2022-08-23T01:18:26.993Z,57.82
2022-08-23T01:19:26.263Z,56.62
2022-08-23T01:20:27.026Z,57.72
2022-08-23T01:21:26.580Z,57.92
2022-08-23T01:22:26.751Z,57.92
2022-08-23T01:23:27.496Z,57.95
2022-08-23T01:25:07.345Z,57.92
2022-08-23T01:25:28.508Z,58.35
2022-08-23T01:26:27.498Z,58.35
2022-08-23T01:27:27.670Z,58.25
2022-08-23T01:28:27.809Z,58.15
2022-08-23T01:29:28.495Z,58.25
2022-08-23T01:30:28.510Z,58.05
2022-08-23T01:31:28.315Z,58.35
2022-08-23T01:32:28.519Z,58.15
2022-08-23T01:33:28.689Z,58.35
2022-08-23T01:34:28.880Z,58.35
2022-08-23T01:35:29.132Z,58.15
2022-08-23T01:36:29.225Z,58.45
2022-08-23T01:37:29.439Z,58.25
2022-08-23T01:38:30.319Z,58.35
2022-08-23T01:39:29.806Z,58.15
2022-08-23T01:40:30.014Z,58.35
2022-08-23T01:41:30.187Z,58.45
2022-08-23T01:42:30.342Z,58.48
2022-08-23T01:43:31.509Z,58.05
2022-08-23T01:44:30.697Z,58.35
2022-08-23T01:45:30.894Z,58.45
2022-08-23T01:46:32.007Z,58.48
2022-08-23T01:47:32.009Z,58.68
2022-08-23T01:48:31.395Z,58.78
2022-08-23T01:49:32.528Z,58.15
2022-08-23T01:50:31.873Z,58.35
2022-08-23T01:51:31.996Z,58.55
2022-08-23T01:52:32.199Z,58.18
2022-08-23T01:53:32.390Z,58.28
2022-08-23T01:54:32.579Z,58.05
2022-08-23T01:55:33.507Z,58.25
2022-08-23T01:56:38.903Z,58.35
2022-08-23T01:57:34.165Z,58.75
2022-08-23T01:58:33.411Z,58.25
2022-08-23T01:59:34.507Z,58.58
2022-08-23T02:00:33.779Z,58.18
2022-08-23T02:01:34.047Z,58.15
2022-08-23T02:02:34.111Z,58.37
2022-08-23T02:03:35.012Z,58.35
2022-08-23T02:04:34.389Z,58.35
2022-08-23T02:05:35.512Z,58.15
2022-08-23T02:06:34.764Z,58.07
2022-08-23T02:07:34.880Z,58.25
2022-08-23T02:08:35.029Z,58.05
2022-08-23T02:09:35.176Z,58.45
2022-08-23T02:10:36.023Z,58.37
2022-08-23T02:11:35.533Z,58.37
2022-08-23T02:12:35.691Z,58.68
2022-08-23T02:13:35.838Z,58.87
2022-08-23T02:14:36.030Z,58.68
2022-08-23T02:15:36.122Z,58.78
2022-08-23T02:16:36.308Z,58.68
2022-08-23T02:17:37.016Z,58.78
2022-08-23T02:18:36.670Z,58.58
2022-08-23T02:19:36.844Z,58.87
2022-08-23T02:20:36.968Z,58.68
2022-08-23T02:21:37.119Z,58.68
2022-08-23T02:22:37.329Z,58.87
2022-08-23T02:23:37.534Z,58.68
2022-08-23T02:24:37.657Z,58.68
2022-08-23T02:25:37.917Z,58.37
2022-08-23T02:26:39.018Z,58.78
2022-08-23T02:27:38.246Z,58.87
2022-08-23T02:28:39.477Z,58.48
2022-08-23T02:29:39.832Z,58.68
2022-08-23T02:30:38.934Z,58.68
2022-08-23T02:31:39.110Z,58.87
2022-08-23T02:32:39.248Z,58.68
2022-08-23T02:33:39.373Z,58.58
2022-08-23T02:34:40.525Z,58.68
2022-08-23T02:35:39.783Z,58.78
2022-08-23T02:36:39.916Z,58.87
2022-08-23T02:37:40.112Z,58.78
2022-08-23T02:38:41.051Z,58.87
2022-08-23T02:39:40.490Z,58.78
2022-08-23T02:40:41.526Z,58.81
2022-08-23T02:41:40.896Z,58.78
2022-08-23T02:42:41.536Z,58.68
2022-08-23T02:43:41.260Z,59.20
2022-08-23T02:44:41.432Z,58.61
2022-08-23T02:45:41.587Z,59.00
2022-08-23T02:46:42.528Z,58.91
2022-08-23T02:47:41.912Z,59.00
2022-08-23T02:48:42.067Z,59.11
2022-08-23T02:49:42.289Z,59.11
2022-08-23T02:50:43.032Z,58.81
2022-08-23T02:51:42.680Z,59.11
2022-08-23T02:52:42.866Z,59.11
2022-08-23T02:53:43.039Z,59.11
2022-08-23T02:54:43.191Z,59.11
2022-08-23T02:55:43.338Z,59.31
2022-08-23T02:56:43.516Z,59.11
2022-08-23T02:57:43.641Z,58.91
2022-08-23T02:58:44.040Z,59.11
2022-08-23T02:59:44.531Z,58.91
2022-08-23T03:00:45.030Z,59.00
2022-08-23T03:01:44.294Z,59.11
2022-08-23T03:02:44.479Z,59.11
2022-08-23T03:03:44.669Z,59.11
2022-08-23T03:04:45.535Z,59.20
2022-08-23T03:05:45.542Z,59.11
2022-08-23T03:06:45.167Z,59.11
2022-08-23T03:07:46.034Z,59.00
2022-08-23T03:08:46.034Z,59.11
2022-08-23T03:09:46.538Z,59.20
2022-08-23T03:10:45.922Z,59.11
2022-08-23T03:11:47.033Z,59.00
2022-08-23T03:12:46.268Z,59.11
2022-08-23T03:13:46.384Z,59.11
2022-08-23T03:14:46.529Z,59.11
2022-08-23T03:15:46.730Z,59.00
2022-08-23T03:16:46.871Z,59.00
2022-08-23T03:17:46.985Z,59.00
2022-08-23T03:18:48.034Z,59.00
2022-08-23T03:19:48.037Z,59.11
2022-08-23T03:20:48.027Z,59.11
2022-08-23T03:21:49.098Z,59.11
2022-08-23T03:22:54.344Z,59.31
2022-08-23T03:23:48.999Z,59.00
2022-08-23T03:24:48.120Z,59.00
2022-08-23T03:25:48.579Z,59.20
2022-08-23T03:26:48.472Z,59.00
2022-08-23T03:27:48.613Z,59.31
2022-08-23T03:28:49.536Z,59.11
2022-08-23T03:29:48.928Z,59.31
2022-08-23T03:30:49.072Z,59.00
2022-08-23T03:31:49.560Z,58.91
2022-08-23T03:32:49.511Z,59.03
2022-08-23T03:33:50.044Z,59.11
2022-08-23T03:34:49.670Z,58.91
2022-08-23T03:35:49.906Z,59.00
2022-08-23T03:36:50.104Z,59.11
2022-08-23T03:37:55.061Z,58.91
2022-08-23T03:38:51.436Z,58.91
2022-08-23T03:39:50.707Z,58.91
2022-08-23T03:40:50.893Z,59.11
2022-08-23T03:41:52.077Z,58.91
2022-08-23T03:42:51.194Z,58.94
2022-08-23T03:43:51.352Z,58.91
2022-08-23T03:44:51.505Z,58.73
2022-08-23T03:45:52.757Z,59.03
2022-08-23T03:46:52.544Z,59.00
2022-08-23T03:47:52.049Z,59.44
2022-08-23T03:48:52.209Z,59.23
2022-08-23T03:49:53.048Z,59.13
2022-08-23T03:50:54.632Z,59.13
2022-08-23T03:51:52.759Z,59.53
2022-08-23T03:52:52.952Z,60.03
2022-08-23T03:53:53.111Z,59.74
2022-08-23T03:54:53.288Z,59.53
2022-08-23T03:55:53.492Z,59.64
2022-08-23T03:56:54.553Z,59.83
2022-08-23T03:57:53.804Z,59.83
2022-08-23T03:58:54.548Z,59.64
2022-08-23T03:59:54.168Z,60.24
2022-08-23T04:00:54.321Z,60.03
2022-08-23T04:01:54.506Z,59.94
2022-08-23T04:02:54.701Z,59.94
2022-08-23T04:03:54.874Z,59.94
2022-08-23T04:04:55.027Z,60.01
2022-08-23T04:05:56.055Z,59.94
2022-08-23T04:06:55.452Z,59.94
2022-08-23T04:07:55.675Z,60.03
2022-08-23T04:08:55.762Z,60.24
2022-08-23T04:09:55.908Z,60.03
2022-08-23T04:10:57.062Z,60.44
2022-08-23T04:11:56.302Z,60.06
2022-08-23T04:12:56.470Z,60.24
2022-08-23T04:13:56.661Z,59.83
2022-08-23T04:14:57.836Z,60.24
2022-08-23T04:15:57.558Z,60.03
2022-08-23T04:16:57.089Z,60.14
2022-08-23T04:17:58.057Z,59.94
2022-08-23T04:19:30.866Z,60.16
2022-08-23T04:19:57.596Z,60.16
2022-08-23T04:20:57.746Z,60.14
2022-08-23T04:21:57.907Z,60.24
2022-08-23T04:22:58.602Z,60.03
2022-08-23T04:23:58.240Z,59.86
2022-08-23T04:24:58.423Z,60.03
2022-08-23T04:25:58.569Z,60.36
2022-08-23T04:26:58.771Z,60.47
2022-08-23T04:27:59.056Z,60.06
2022-08-23T04:29:00.116Z,60.74
2022-08-23T04:30:00.367Z,60.57
2022-08-23T04:30:59.509Z,60.66
2022-08-23T04:32:00.603Z,60.47
2022-08-23T04:32:59.799Z,60.36
2022-08-23T04:33:59.978Z,60.47
2022-08-23T04:35:00.133Z,60.69
2022-08-23T04:36:00.291Z,61.30
2022-08-23T04:37:00.440Z,61.19
2022-08-23T04:38:00.790Z,61.10
2022-08-23T04:39:01.609Z,61.00
2022-08-23T04:40:02.167Z,61.30
2022-08-23T04:41:01.314Z,61.19
2022-08-23T04:42:01.471Z,61.30
2022-08-23T04:43:01.611Z,61.10
2022-08-23T04:44:01.773Z,61.40
2022-08-23T04:45:01.931Z,61.10
2022-08-23T04:46:02.606Z,61.00
2022-08-23T04:47:03.108Z,61.19
2022-08-23T04:48:02.714Z,61.19
2022-08-23T04:49:02.749Z,61.10
2022-08-23T04:50:02.886Z,61.57
2022-08-23T04:51:03.025Z,61.40
2022-08-23T04:52:03.167Z,60.89
2022-08-23T04:53:03.639Z,60.80
2022-08-23T04:54:04.113Z,61.00
2022-08-23T04:55:03.716Z,61.30
2022-08-23T04:56:03.886Z,61.00
2022-08-23T04:57:03.999Z,61.19
2022-08-23T04:58:04.612Z,60.80
2022-08-23T04:59:04.338Z,61.60
2022-08-23T05:00:04.461Z,61.40
2022-08-23T05:01:04.677Z,61.70
2022-08-23T05:02:04.734Z,61.50
2022-08-23T05:03:05.621Z,61.87
2022-08-23T05:04:05.044Z,61.87
2022-08-23T05:05:05.189Z,61.50
2022-08-23T05:06:05.366Z,60.97
2022-08-23T05:07:05.504Z,61.50
2022-08-23T05:08:06.615Z,61.30
2022-08-23T05:09:05.897Z,61.40
2022-08-23T05:10:06.072Z,61.67
2022-08-23T05:11:06.249Z,61.57
2022-08-23T05:12:06.633Z,61.60
2022-08-23T05:13:06.673Z,61.57
2022-08-23T05:14:07.629Z,61.87
2022-08-23T05:15:07.624Z,61.50
2022-08-23T05:16:08.145Z,61.30
2022-08-23T05:17:07.348Z,61.50
2022-08-23T05:18:08.125Z,61.36
2022-08-23T05:19:07.662Z,61.40
2022-08-23T05:20:07.853Z,61.77
2022-08-23T05:21:08.619Z,61.47
2022-08-23T05:22:08.173Z,61.47
2022-08-23T05:23:09.122Z,61.67
2022-08-23T05:24:08.492Z,61.47
2022-08-23T05:25:09.641Z,61.07
2022-08-23T05:26:08.773Z,60.97
2022-08-23T05:27:13.373Z,61.74
2022-08-23T05:28:10.101Z,61.24
2022-08-23T05:29:10.146Z,60.86
2022-08-23T05:30:14.447Z,61.07
2022-08-23T05:31:11.733Z,60.94
2022-08-23T05:32:09.753Z,61.34
2022-08-23T05:33:09.900Z,61.04
2022-08-23T05:34:10.624Z,61.34
2022-08-23T05:35:10.263Z,61.34
2022-08-23T05:36:10.408Z,61.04
2022-08-23T05:37:10.574Z,61.04
2022-08-23T05:38:10.740Z,60.84
2022-08-23T05:39:10.917Z,61.04
2022-08-23T05:40:11.148Z,60.61
2022-08-23T05:41:12.125Z,60.44
2022-08-23T05:42:11.509Z,61.01
2022-08-23T05:43:11.652Z,60.74
2022-08-23T05:44:12.347Z,61.01
2022-08-23T05:45:12.032Z,60.41
2022-08-23T05:46:13.279Z,60.91
2022-08-23T05:47:12.425Z,60.41
2022-08-23T05:48:12.585Z,60.41
2022-08-23T05:49:12.762Z,61.01
2022-08-23T05:50:13.638Z,60.71
2022-08-23T05:51:13.156Z,60.61
2022-08-23T05:52:14.133Z,60.41
2022-08-23T05:53:13.536Z,60.61
2022-08-23T05:54:13.686Z,60.41
2022-08-23T05:55:13.843Z,59.91
2022-08-23T05:56:13.993Z,59.88
2022-08-23T05:57:14.159Z,60.18
2022-08-23T05:58:14.276Z,60.58
2022-08-23T05:59:15.157Z,59.98
2022-08-23T06:00:14.653Z,60.38
2022-08-23T06:01:14.828Z,59.98
2022-08-23T06:02:14.992Z,59.98
2022-08-23T06:03:16.140Z,60.38
2022-08-23T06:04:15.367Z,59.95
2022-08-23T06:05:15.507Z,59.85
2022-08-23T06:06:15.643Z,59.62
2022-08-23T06:07:16.639Z,58.99
2022-08-23T06:08:16.635Z,58.49
2022-08-23T06:09:16.127Z,58.67
2022-08-23T06:10:16.651Z,58.69
2022-08-23T06:11:16.435Z,59.09
2022-08-23T06:12:16.570Z,58.89
2022-08-23T06:13:16.719Z,58.89
2022-08-23T06:14:16.885Z,59.19
2022-08-23T06:15:17.076Z,58.99
2022-08-23T06:16:17.248Z,58.80
2022-08-23T06:17:17.384Z,58.59
2022-08-23T06:18:17.564Z,59.09
2022-08-23T06:19:17.753Z,59.09
2022-08-23T06:20:17.953Z,58.99
2022-08-23T06:21:18.157Z,58.49
2022-08-23T06:22:19.142Z,58.89
2022-08-23T06:23:18.541Z,58.67
2022-08-23T06:24:18.697Z,59.09
2022-08-23T06:25:19.669Z,58.99
2022-08-23T06:26:19.055Z,58.89
2022-08-23T06:27:19.207Z,58.26
2022-08-23T06:28:20.142Z,58.47
2022-08-23T06:29:20.974Z,58.47
2022-08-23T06:30:20.649Z,58.47
2022-08-23T06:31:19.947Z,58.47
2022-08-23T06:32:20.197Z,58.44
2022-08-23T06:33:20.433Z,58.56
2022-08-23T06:34:20.604Z,58.37
2022-08-23T06:35:37.865Z,59.17
2022-08-23T06:36:21.912Z,58.54
2022-08-23T06:37:21.222Z,58.04
2022-08-23T06:38:21.246Z,58.54
2022-08-23T06:39:22.148Z,58.24
2022-08-23T06:40:21.650Z,58.44
2022-08-23T06:41:21.693Z,58.61
2022-08-23T06:42:37.882Z,58.21
2022-08-23T06:43:24.015Z,57.81
2022-08-23T06:44:22.159Z,57.68
2022-08-23T06:45:22.339Z,56.98
2022-08-23T06:46:23.769Z,56.88
2022-08-23T06:47:23.181Z,57.48
2022-08-23T06:48:23.652Z,57.48
2022-08-23T06:49:23.651Z,57.09
2022-08-23T06:50:23.665Z,57.06
2022-08-23T06:51:23.285Z,56.66
2022-08-23T06:52:23.419Z,56.63
2022-08-23T06:53:23.669Z,56.10
2022-08-23T06:54:23.698Z,56.70
2022-08-23T06:55:23.822Z,56.40
2022-08-23T06:56:23.988Z,56.33
2022-08-23T06:57:24.668Z,56.13
2022-08-23T06:58:24.305Z,56.60
2022-08-23T06:59:24.448Z,56.60
2022-08-23T07:00:24.587Z,56.90
2022-08-23T07:01:44.537Z,56.21
2022-08-23T07:02:26.984Z,55.91
2022-08-23T07:03:25.662Z,56.21
2022-08-23T07:04:25.674Z,56.38
2022-08-23T07:05:25.332Z,56.08
2022-08-23T07:06:25.494Z,55.88
2022-08-23T07:07:25.673Z,55.38
2022-08-23T07:08:26.803Z,55.78
2022-08-23T07:09:25.945Z,55.28
2022-08-23T07:10:26.090Z,55.35
2022-08-23T07:11:26.233Z,55.88
2022-08-23T07:12:26.428Z,55.35
2022-08-23T07:13:27.175Z,55.16
2022-08-23T07:14:26.740Z,54.46
2022-08-23T07:15:26.888Z,54.38
2022-08-23T07:16:27.740Z,54.79
2022-08-23T07:17:27.281Z,54.88
2022-08-23T07:18:28.162Z,54.88
2022-08-23T07:19:29.227Z,55.01
2022-08-23T07:20:28.187Z,54.91
2022-08-23T07:21:28.665Z,56.21
2022-08-23T07:22:28.300Z,55.63
2022-08-23T07:23:28.431Z,56.23
2022-08-23T07:24:32.974Z,56.53
2022-08-23T07:25:30.779Z,56.33
2022-08-23T07:26:29.009Z,56.43
2022-08-23T07:27:29.213Z,56.33
2022-08-23T07:28:30.164Z,55.31
2022-08-23T07:29:29.556Z,56.30
2022-08-23T07:30:30.667Z,55.68
2022-08-23T07:31:30.223Z,54.98
2022-08-23T07:32:30.166Z,55.58
2022-08-23T07:33:30.325Z,55.38
2022-08-23T07:34:30.545Z,54.88
2022-08-23T07:35:30.709Z,54.79
2022-08-23T07:36:31.669Z,54.96
2022-08-23T07:37:31.183Z,54.96
2022-08-23T07:38:31.213Z,54.86
2022-08-23T07:39:31.385Z,55.26
2022-08-23T07:40:34.488Z,54.86
2022-08-23T07:41:33.047Z,54.53
2022-08-23T07:42:32.674Z,53.94
2022-08-23T07:43:32.071Z,54.60
2022-08-23T07:44:33.173Z,53.91
2022-08-23T07:45:33.167Z,54.18
2022-08-23T07:46:32.593Z,53.96
2022-08-23T07:47:32.773Z,53.06
2022-08-23T07:48:52.810Z,52.86
2022-08-23T07:49:35.674Z,52.76
2022-08-23T07:50:33.257Z,52.84
2022-08-23T07:51:33.378Z,52.42
2022-08-23T07:52:33.539Z,51.62
2022-08-23T07:53:38.057Z,51.70
2022-08-23T07:54:33.900Z,52.12
2022-08-23T07:55:34.119Z,51.52
2022-08-23T07:56:35.176Z,52.12
2022-08-23T07:57:34.508Z,51.92
2022-08-23T07:58:34.702Z,51.23
2022-08-23T07:59:35.675Z,51.62
2022-08-23T08:00:35.130Z,52.22
2022-08-23T08:01:35.352Z,51.92
2022-08-23T08:02:35.462Z,51.82
2022-08-23T08:03:35.584Z,51.92
2022-08-23T08:04:36.671Z,51.42
2022-08-23T08:05:36.967Z,52.31
2022-08-23T08:06:36.150Z,51.23
2022-08-23T08:07:37.208Z,51.70
2022-08-23T08:08:37.193Z,51.30
2022-08-23T08:09:36.571Z,51.50
2022-08-23T08:10:37.708Z,51.67
2022-08-23T08:11:36.973Z,51.30
2022-08-23T08:12:37.683Z,51.37
2022-08-23T08:13:37.271Z,50.78
2022-08-23T08:14:37.490Z,50.48
2022-08-23T08:15:38.199Z,51.37
2022-08-23T08:16:37.848Z,50.48
2022-08-23T08:17:37.979Z,50.38
2022-08-23T08:18:38.687Z,51.15
2022-08-23T08:19:38.329Z,49.94
2022-08-23T08:20:39.190Z,49.54
2022-08-23T08:21:38.706Z,49.12
2022-08-23T08:22:39.691Z,49.84
2022-08-23T08:23:39.086Z,49.99
2022-08-23T08:24:40.190Z,49.07
2022-08-23T08:25:39.432Z,47.89
2022-08-23T08:26:40.222Z,49.29
2022-08-23T08:27:39.723Z,49.42
2022-08-23T08:28:40.204Z,49.81
2022-08-23T08:29:40.112Z,49.62
2022-08-23T08:30:40.281Z,49.74
2022-08-23T08:31:40.491Z,50.21
2022-08-23T08:32:47.008Z,49.81
2022-08-23T08:33:42.809Z,49.52
2022-08-23T08:34:41.212Z,49.32
2022-08-23T08:35:41.137Z,49.71
2022-08-23T08:36:41.374Z,49.62
2022-08-23T08:37:41.707Z,49.52
2022-08-23T08:38:48.412Z,49.71
2022-08-23T08:39:42.847Z,49.71
2022-08-23T08:40:42.699Z,49.62
2022-08-23T08:41:42.202Z,49.71
2022-08-23T08:42:42.720Z,49.71
2022-08-23T08:43:42.480Z,49.32
2022-08-23T08:44:42.652Z,49.42
2022-08-23T08:45:43.713Z,49.64
2022-08-23T08:46:44.058Z,49.62
2022-08-23T08:47:43.207Z,49.42
2022-08-23T08:48:44.221Z,49.64
2022-08-23T08:49:43.493Z,49.71
2022-08-23T08:50:43.671Z,49.52
2022-08-23T08:51:44.698Z,49.62
2022-08-23T08:52:44.122Z,49.91
2022-08-23T08:53:44.293Z,49.42
2022-08-23T08:54:48.181Z,49.22
2022-08-23T08:55:45.730Z,49.62
2022-08-23T08:56:45.717Z,49.12
2022-08-23T08:57:45.085Z,49.62
2022-08-23T08:58:46.222Z,49.42
2022-08-23T08:59:46.302Z,49.89
2022-08-23T09:00:46.390Z,49.40
2022-08-23T09:01:45.839Z,49.59
2022-08-23T09:02:45.983Z,49.17
2022-08-23T09:03:46.217Z,48.08
2022-08-23T09:04:46.704Z,47.86
2022-08-23T09:05:46.349Z,47.54
2022-08-23T09:06:46.516Z,48.03
2022-08-23T09:07:47.209Z,48.31
2022-08-23T09:08:47.709Z,47.13
2022-08-23T09:09:47.737Z,48.11
2022-08-23T09:10:47.339Z,47.62
2022-08-23T09:11:47.474Z,47.52
2022-08-23T09:12:47.597Z,47.52
2022-08-23T09:13:47.750Z,47.42
2022-08-23T09:14:48.711Z,47.13
2022-08-23T09:15:48.125Z,47.13
2022-08-23T09:16:48.270Z,48.11
2022-08-23T09:17:48.506Z,47.54
2022-08-23T09:18:48.711Z,47.84
2022-08-23T09:19:49.711Z,48.11
2022-08-23T09:20:49.709Z,47.42
2022-08-23T09:21:49.104Z,47.42
2022-08-23T09:22:50.215Z,47.89
2022-08-23T09:23:58.797Z,48.09
2022-08-23T09:24:51.215Z,47.79
2022-08-23T09:25:49.807Z,47.60
2022-08-23T09:26:49.920Z,47.47
2022-08-23T09:27:50.741Z,47.57
2022-08-23T09:28:50.258Z,46.19
2022-08-23T09:29:50.432Z,45.70
2022-08-23T09:30:50.710Z,46.69
2022-08-23T09:31:50.971Z,46.19
2022-08-23T09:32:50.946Z,45.20
2022-08-23T09:33:51.147Z,45.87
2022-08-23T09:34:51.297Z,46.76
2022-08-23T09:35:52.218Z,46.88
2022-08-23T09:36:52.406Z,47.08
2022-08-23T09:37:52.859Z,46.69
2022-08-23T09:38:52.757Z,47.38
2022-08-23T09:39:52.200Z,45.97
2022-08-23T09:40:52.281Z,45.48
2022-08-23T09:41:52.428Z,45.10
2022-08-23T09:42:53.221Z,46.76
2022-08-23T09:43:53.242Z,46.04
2022-08-23T09:44:53.229Z,44.67
2022-08-23T09:45:53.119Z,43.76
2022-08-23T09:46:54.229Z,44.23
2022-08-23T09:47:53.487Z,43.93
2022-08-23T09:48:53.649Z,44.43
2022-08-23T09:49:53.870Z,43.93
2022-08-23T09:50:54.029Z,44.84
2022-08-23T09:51:54.339Z,44.87
2022-08-23T09:52:54.343Z,45.06
2022-08-23T09:53:54.508Z,46.07
2022-08-23T09:54:55.856Z,45.08
2022-08-23T09:55:55.809Z,45.30
2022-08-23T09:56:55.039Z,45.79
2022-08-23T09:57:55.724Z,45.01
2022-08-23T09:58:55.339Z,44.98
2022-08-23T09:59:55.741Z,44.49
2022-08-23T10:00:55.739Z,44.98
2022-08-23T10:01:55.794Z,44.98
2022-08-23T10:02:56.255Z,46.04
2022-08-23T10:03:56.741Z,45.26
2022-08-23T10:04:57.352Z,46.12
2022-08-23T10:05:56.501Z,45.53
2022-08-23T10:06:57.232Z,45.81
2022-08-23T10:07:56.854Z,45.59
2022-08-23T10:08:57.728Z,44.58
2022-08-23T10:09:57.736Z,43.85
2022-08-23T10:10:57.356Z,42.25
2022-08-23T10:11:58.234Z,41.37
2022-08-23T10:12:57.758Z,41.56
2022-08-23T10:13:58.244Z,41.98
2022-08-23T10:14:58.131Z,43.06
2022-08-23T10:15:59.291Z,42.77
2022-08-23T10:16:58.459Z,44.12
2022-08-23T10:17:58.609Z,41.72
2022-08-23T10:18:59.734Z,42.21
2022-08-23T10:19:59.247Z,41.82
2022-08-23T10:20:59.735Z,41.53
2022-08-23T10:22:00.237Z,42.16
2022-08-23T10:22:59.473Z,43.63
2022-08-23T10:23:59.608Z,44.22
2022-08-23T10:24:59.750Z,43.95
2022-08-23T10:25:59.884Z,42.99
2022-08-23T10:27:00.128Z,43.68
2022-08-23T10:28:00.472Z,43.77
2022-08-23T10:29:01.239Z,45.47
2022-08-23T10:30:00.613Z,43.42
2022-08-23T10:31:00.889Z,44.60
2022-08-23T10:32:01.739Z,43.52
2022-08-23T10:33:01.134Z,42.63
2022-08-23T10:34:01.750Z,43.71
2022-08-23T10:35:01.432Z,44.40
2022-08-23T10:36:01.601Z,44.72
2022-08-23T10:37:01.791Z,44.51
2022-08-23T10:38:02.153Z,44.78
2022-08-23T10:39:02.155Z,44.09
2022-08-23T10:40:04.702Z,43.68
2022-08-23T10:41:04.265Z,43.91
2022-08-23T10:42:02.769Z,44.90
2022-08-23T10:43:02.914Z,46.10
2022-08-23T10:44:03.076Z,45.90
2022-08-23T10:45:03.217Z,45.31
2022-08-23T10:46:03.396Z,43.86
2022-08-23T10:47:03.563Z,41.49
2022-08-23T10:48:03.711Z,41.22
2022-08-23T10:49:03.853Z,42.60
2022-08-23T10:50:03.966Z,42.89
2022-08-23T10:51:04.759Z,43.88
2022-08-23T10:52:04.358Z,42.89
2022-08-23T10:53:04.522Z,42.77
2022-08-23T10:54:04.762Z,41.27
2022-08-23T10:55:04.803Z,42.26
2022-08-23T10:56:04.938Z,41.06
2022-08-23T10:57:05.750Z,41.93
2022-08-23T10:58:05.219Z,41.63
2022-08-23T10:59:05.381Z,41.73
2022-08-23T11:00:05.557Z,41.24
2022-08-23T11:01:05.720Z,41.35
2022-08-23T11:02:05.874Z,40.74
2022-08-23T11:03:06.027Z,41.04
2022-08-23T11:04:06.208Z,40.84
2022-08-23T11:05:06.780Z,41.45
2022-08-23T11:06:07.276Z,40.96
2022-08-23T11:07:07.757Z,41.35
2022-08-23T11:08:07.002Z,41.57
2022-08-23T11:09:07.157Z,40.98
2022-08-23T11:10:16.228Z,41.77
2022-08-23T11:11:08.529Z,41.96
2022-08-23T11:12:10.928Z,40.58
2022-08-23T11:13:07.934Z,41.08
2022-08-23T11:14:08.092Z,41.08
2022-08-23T11:15:08.228Z,42.04
2022-08-23T11:16:08.382Z,42.22
2022-08-23T11:17:08.798Z,43.60
2022-08-23T11:18:08.676Z,42.52
2022-08-23T11:19:09.877Z,42.79
2022-08-23T11:20:09.766Z,42.10
2022-08-23T11:21:09.286Z,40.90
2022-08-23T11:22:10.495Z,41.49
2022-08-23T11:23:09.664Z,40.88
2022-08-23T11:24:09.834Z,38.90
2022-08-23T11:25:10.764Z,39.70
2022-08-23T11:26:10.142Z,39.78
2022-08-23T11:27:43.706Z,40.35
2022-08-23T11:28:10.460Z,40.25
2022-08-23T11:29:10.641Z,40.25
2022-08-23T11:30:10.802Z,39.74
2022-08-23T11:31:11.764Z,40.72
2022-08-23T11:32:11.191Z,39.94
2022-08-23T11:33:11.361Z,40.55
2022-08-23T11:34:11.594Z,40.47
2022-08-23T11:35:12.295Z,40.47
2022-08-23T11:36:12.815Z,39.40
2022-08-23T11:37:12.067Z,39.82
2022-08-23T11:38:12.211Z,39.62
2022-08-23T11:39:12.394Z,39.94
2022-08-23T11:40:17.960Z,40.31
2022-08-23T11:41:14.803Z,41.17
2022-08-23T11:42:13.033Z,40.78
2022-08-23T11:43:13.199Z,39.32
2022-08-23T11:44:13.378Z,39.74
2022-08-23T11:45:13.542Z,40.25
2022-08-23T11:46:13.746Z,40.37
2022-08-23T11:47:13.914Z,40.78
2022-08-23T11:48:14.813Z,40.88
2022-08-23T11:49:14.214Z,39.97
2022-08-23T11:50:15.305Z,41.16
2022-08-23T11:51:14.551Z,40.25
2022-08-23T11:52:14.740Z,40.43
2022-08-23T11:53:15.256Z,39.90
2022-08-23T11:54:15.620Z,39.70
2022-08-23T11:55:15.821Z,39.78
2022-08-23T11:56:15.444Z,39.66
2022-08-23T11:57:15.609Z,38.56
2022-08-23T11:58:15.762Z,39.54
2022-08-23T11:59:15.910Z,38.54
2022-08-23T12:00:17.468Z,38.62
2022-08-23T12:01:16.802Z,37.43
2022-08-23T12:02:17.916Z,38.39
2022-08-23T12:03:16.881Z,38.08
2022-08-23T12:04:16.691Z,38.20
2022-08-23T12:05:17.813Z,37.33
2022-08-23T12:06:17.813Z,38.02
2022-08-23T12:07:17.187Z,37.54
2022-08-23T12:08:17.833Z,37.96
2022-08-23T12:09:18.312Z,38.33
2022-08-23T12:10:18.798Z,37.46
2022-08-23T12:11:17.936Z,39.22
2022-08-23T12:12:18.107Z,38.23
2022-08-23T12:13:18.233Z,38.43
2022-08-23T12:14:18.388Z,37.35
2022-08-23T12:15:19.329Z,36.39
2022-08-23T12:16:19.381Z,37.70
2022-08-23T12:17:19.302Z,37.93
2022-08-23T12:18:23.951Z,38.52
2022-08-23T12:19:21.766Z,38.54
2022-08-23T12:20:20.317Z,39.62
2022-08-23T12:21:19.510Z,38.44
2022-08-23T12:22:19.655Z,39.07
2022-08-23T12:23:20.305Z,39.07
2022-08-23T12:24:21.332Z,39.95
2022-08-23T12:25:20.193Z,39.95
2022-08-23T12:26:21.321Z,39.76
2022-08-23T12:27:20.564Z,39.76
2022-08-23T12:28:54.745Z,39.66
2022-08-23T12:29:20.858Z,40.05
2022-08-23T12:30:21.865Z,39.76
2022-08-23T12:31:21.232Z,40.08
2022-08-23T12:32:22.335Z,40.27
2022-08-23T12:33:22.354Z,40.35
2022-08-23T12:34:21.739Z,42.32
2022-08-23T12:35:21.903Z,40.05
2022-08-23T12:36:22.050Z,43.01
2022-08-23T12:37:22.179Z,42.12
2022-08-23T12:38:22.311Z,41.93
2022-08-23T12:39:23.356Z,41.33
2022-08-23T12:40:22.605Z,41.02
2022-08-23T12:41:22.791Z,41.51
2022-08-23T12:42:22.922Z,42.30
2022-08-23T12:43:23.855Z,39.25
2022-08-23T12:44:23.214Z,40.94
2022-08-23T12:45:23.862Z,39.66
2022-08-23T12:46:23.976Z,39.09
2022-08-23T12:47:23.622Z,39.87
2022-08-23T12:48:23.761Z,39.68
2022-08-23T12:49:24.854Z,39.87
2022-08-23T12:50:30.584Z,39.87
2022-08-23T12:51:25.374Z,39.79
2022-08-23T12:52:24.344Z,39.97
2022-08-23T12:53:24.873Z,40.37
2022-08-23T12:54:24.611Z,40.55